createdAt,value
2018-10-12T00:00:07.767Z,5.17
2018-10-12T00:02:36.635Z,4.72
2018-10-12T00:05:06.166Z,3.83
2018-10-12T00:07:35.136Z,3.02
2018-10-12T00:10:04.089Z,2.98
2018-10-12T00:12:33.175Z,3.15
2018-10-12T00:15:02.042Z,3.05
2018-10-12T00:17:30.926Z,2.87
2018-10-12T00:19:59.760Z,2.67
2018-10-12T00:22:28.593Z,2.92
2018-10-12T00:24:57.497Z,3.00
2018-10-12T00:27:26.503Z,3.10
2018-10-12T00:29:55.365Z,3.50
2018-10-12T00:32:24.260Z,3.40
2018-10-12T00:34:53.088Z,3.05
2018-10-12T00:37:21.918Z,3.08
2018-10-12T00:39:50.770Z,3.15
2018-10-12T00:42:19.616Z,3.40
2018-10-12T00:44:48.488Z,3.40
2018-10-12T00:47:17.333Z,3.30
2018-10-12T00:49:46.238Z,3.72
2018-10-12T00:52:15.613Z,4.03
2018-10-12T00:54:44.491Z,3.80
2018-10-12T00:57:13.375Z,3.80
2018-10-12T00:59:42.229Z,3.90
2018-10-12T01:02:11.478Z,3.98
2018-10-12T01:04:40.446Z,3.80
2018-10-12T01:07:09.312Z,4.78
2018-10-12T01:09:38.509Z,4.20
2018-10-12T01:12:18.758Z,3.85
2018-10-12T01:14:48.179Z,4.35
2018-10-12T01:17:17.019Z,4.05
2018-10-12T01:19:45.889Z,4.58
2018-10-12T01:22:14.796Z,3.67
2018-10-12T01:24:43.725Z,4.10
2018-10-12T01:27:12.618Z,4.00
2018-10-12T01:29:41.479Z,4.10
2018-10-12T01:32:14.896Z,4.05
2018-10-12T01:34:43.776Z,3.67
2018-10-12T01:37:12.592Z,3.83
2018-10-12T01:39:41.434Z,3.85
2018-10-12T01:42:10.268Z,4.20
2018-10-12T01:44:39.559Z,4.00
2018-10-12T01:47:08.491Z,4.78
2018-10-12T01:49:37.669Z,4.20
2018-10-12T01:52:06.823Z,3.77
2018-10-12T01:54:35.671Z,3.60
2018-10-12T01:57:04.519Z,3.60
2018-10-12T01:59:33.440Z,4.03
2018-10-12T02:02:02.859Z,4.22
2018-10-12T02:04:32.757Z,3.58
2018-10-12T02:07:02.491Z,3.85
2018-10-12T02:09:31.340Z,3.72
2018-10-12T02:12:00.200Z,3.60
2018-10-12T02:14:30.218Z,3.95
2018-10-12T02:16:59.076Z,3.98
2018-10-12T02:19:27.948Z,4.47
2018-10-12T02:21:57.124Z,3.37
2018-10-12T02:24:25.960Z,4.17
2018-10-12T02:26:54.885Z,3.55
2018-10-12T02:29:23.725Z,3.77
2018-10-12T02:31:52.567Z,3.15
2018-10-12T02:34:21.486Z,3.65
2018-10-12T02:36:50.327Z,3.35
2018-10-12T02:39:19.184Z,3.60
2018-10-12T02:41:48.100Z,3.55
2018-10-12T02:44:16.978Z,3.67
2018-10-12T02:46:45.846Z,3.30
2018-10-12T02:49:14.723Z,3.40
2018-10-12T02:51:43.594Z,3.00
2018-10-12T02:54:12.812Z,3.33
2018-10-12T02:56:41.661Z,3.08
2018-10-12T02:59:10.519Z,3.45
2018-10-12T03:01:39.429Z,2.60
2018-10-12T03:04:08.308Z,2.92
2018-10-12T03:06:37.202Z,3.00
2018-10-12T03:09:08.948Z,3.00
2018-10-12T03:11:37.810Z,3.15
2018-10-12T03:14:06.885Z,3.00
2018-10-12T03:16:35.770Z,3.17
2018-10-12T03:19:04.667Z,3.20
2018-10-12T03:21:33.731Z,3.30
2018-10-12T03:24:02.573Z,3.10
2018-10-12T03:26:31.428Z,3.10
2018-10-12T03:29:00.279Z,3.55
2018-10-12T03:31:29.865Z,2.98
2018-10-12T03:33:58.804Z,3.27
2018-10-12T03:36:28.462Z,3.10
2018-10-12T03:38:57.324Z,3.45
2018-10-12T03:41:26.525Z,3.27
2018-10-12T03:43:55.376Z,3.60
2018-10-12T03:46:24.658Z,3.72
2018-10-12T03:48:53.863Z,3.25
2018-10-12T03:51:22.753Z,3.58
2018-10-12T03:53:51.629Z,3.35
2018-10-12T03:56:20.847Z,3.30
2018-10-12T03:58:49.746Z,3.50
2018-10-12T04:01:18.601Z,3.37
2018-10-12T04:03:47.479Z,3.10
2018-10-12T04:06:16.372Z,3.50
2018-10-12T04:08:45.219Z,3.65
2018-10-12T04:11:13.500Z,3.10
2018-10-12T04:13:42.706Z,3.30
2018-10-12T04:16:10.974Z,3.40
2018-10-12T04:18:39.822Z,3.58
2018-10-12T04:21:08.238Z,3.58
2018-10-12T04:23:36.532Z,3.60
2018-10-12T04:26:04.830Z,3.87
2018-10-12T04:28:33.177Z,3.93
2018-10-12T04:31:01.560Z,4.47
2018-10-12T04:33:29.864Z,3.80
2018-10-12T04:35:58.712Z,4.65
2018-10-12T04:38:32.070Z,4.50
2018-10-12T04:41:07.486Z,4.67
2018-10-12T04:43:36.303Z,4.62
2018-10-12T04:46:06.688Z,4.50
2018-10-12T04:48:36.107Z,4.57
2018-10-12T04:51:06.785Z,4.47
2018-10-12T04:53:35.594Z,4.37
2018-10-12T04:56:07.245Z,4.42
2018-10-12T04:58:35.537Z,4.57
2018-10-12T05:01:04.262Z,4.83
2018-10-12T05:03:32.804Z,4.47
2018-10-12T05:06:01.373Z,4.57
2018-10-12T05:08:29.731Z,4.20
2018-10-12T05:10:58.035Z,4.30
2018-10-12T05:13:26.315Z,4.30
2018-10-12T05:15:55.218Z,4.72
2018-10-12T05:18:23.525Z,4.20
2018-10-12T05:20:51.780Z,4.97
2018-10-12T05:23:20.099Z,4.83
2018-10-12T05:25:48.444Z,4.17
2018-10-12T05:28:16.728Z,4.93
2018-10-12T05:30:45.282Z,4.27
2018-10-12T05:33:13.964Z,4.47
2018-10-12T05:35:42.241Z,4.17
2018-10-12T05:38:10.594Z,4.80
2018-10-12T05:40:38.896Z,4.20
2018-10-12T05:43:07.287Z,3.90
2018-10-12T05:45:35.736Z,4.37
2018-10-12T05:48:15.397Z,4.20
2018-10-12T05:50:44.247Z,4.30
2018-10-12T05:53:12.596Z,4.63
2018-10-12T05:55:41.180Z,4.60
2018-10-12T05:58:09.892Z,4.40
2018-10-12T06:00:38.211Z,4.27
2018-10-12T06:03:06.763Z,4.60
2018-10-12T06:05:35.551Z,4.33
2018-10-12T06:08:03.861Z,4.70
2018-10-12T06:10:32.193Z,4.27
2018-10-12T06:13:00.480Z,4.53
2018-10-12T06:15:28.844Z,4.10
2018-10-12T06:17:57.327Z,4.10
2018-10-12T06:20:25.626Z,4.80
2018-10-12T06:22:53.916Z,4.50
2018-10-12T06:25:22.279Z,5.40
2018-10-12T06:27:50.668Z,5.47
2018-10-12T06:30:19.023Z,5.80
2018-10-12T06:32:48.127Z,6.10
2018-10-12T06:35:16.591Z,5.77
2018-10-12T06:37:44.950Z,5.92
2018-10-12T06:40:13.216Z,6.03
2018-10-12T06:42:41.758Z,6.47
2018-10-12T06:45:10.662Z,5.85
2018-10-12T06:47:39.338Z,6.47
2018-10-12T06:50:07.724Z,6.35
2018-10-12T06:52:37.010Z,6.45
2018-10-12T06:55:06.831Z,6.08
2018-10-12T06:57:35.746Z,6.62
2018-10-12T07:00:05.456Z,6.47
2018-10-12T07:02:34.424Z,6.57
2018-10-12T07:05:03.292Z,7.80
2018-10-12T07:07:32.176Z,7.55
2018-10-12T07:10:01.040Z,7.45
2018-10-12T07:12:30.116Z,8.10
2018-10-12T07:14:59.051Z,7.80
2018-10-12T07:17:27.881Z,7.90
2018-10-12T07:19:56.745Z,7.90
2018-10-12T07:22:25.608Z,8.20
2018-10-12T07:24:54.503Z,8.28
2018-10-12T07:27:23.363Z,8.58
2018-10-12T07:29:52.218Z,8.65
2018-10-12T07:32:21.087Z,8.43
2018-10-12T07:34:49.979Z,8.03
2018-10-12T07:37:18.899Z,8.58
2018-10-12T07:39:47.847Z,8.30
2018-10-12T07:42:16.721Z,8.50
2018-10-12T07:44:45.813Z,7.53
2018-10-12T07:47:15.252Z,7.60
2018-10-12T07:49:44.320Z,7.60
2018-10-12T07:52:13.319Z,7.62
2018-10-12T07:54:42.195Z,8.13
2018-10-12T07:57:13.164Z,7.53
2018-10-12T07:59:42.858Z,7.00
2018-10-12T08:02:12.224Z,7.10
2018-10-12T08:04:41.886Z,6.70
2018-10-12T08:07:11.826Z,6.80
2018-10-12T08:09:40.969Z,6.22
2018-10-12T08:12:09.888Z,5.67
2018-10-12T08:14:38.774Z,6.03
2018-10-12T08:17:07.945Z,6.25
2018-10-12T08:19:37.198Z,5.70
2018-10-12T08:22:06.132Z,5.35
2018-10-12T08:24:35.322Z,5.97
2018-10-12T08:27:04.640Z,5.85
2018-10-12T08:29:33.574Z,5.42
2018-10-12T08:32:02.786Z,6.08
2018-10-12T08:34:31.856Z,5.83
2018-10-12T08:37:00.703Z,5.60
2018-10-12T08:39:29.566Z,5.62
2018-10-12T08:41:58.525Z,5.72
2018-10-12T08:44:27.520Z,5.15
2018-10-12T08:46:56.725Z,5.58
2018-10-12T08:49:26.011Z,4.90
2018-10-12T08:51:54.933Z,4.85
2018-10-12T08:54:23.937Z,4.50
2018-10-12T08:56:52.954Z,5.12
2018-10-12T08:59:21.865Z,4.95
2018-10-12T09:01:50.753Z,4.40
2018-10-12T09:04:19.623Z,4.12
2018-10-12T09:06:48.832Z,3.80
2018-10-12T09:09:17.687Z,4.15
2018-10-12T09:11:46.568Z,3.55
2018-10-12T09:14:15.459Z,3.50
2018-10-12T09:16:44.335Z,3.15
2018-10-12T09:19:13.223Z,3.47
2018-10-12T09:21:42.105Z,3.55
2018-10-12T09:24:11.124Z,3.02
2018-10-12T09:26:40.349Z,2.98
2018-10-12T09:29:09.209Z,2.77
2018-10-12T09:31:38.074Z,2.62
2018-10-12T09:34:07.020Z,2.50
2018-10-12T09:36:35.932Z,2.60
2018-10-12T09:39:06.175Z,2.35
2018-10-12T09:41:35.597Z,3.10
2018-10-12T09:44:04.435Z,2.75
2018-10-12T09:46:33.325Z,2.62
2018-10-12T09:49:02.178Z,3.05
2018-10-12T09:51:31.597Z,3.30
2018-10-12T09:54:00.515Z,3.42
2018-10-12T09:56:29.414Z,4.05
2018-10-12T09:58:58.311Z,4.35
2018-10-12T10:01:32.455Z,4.22
2018-10-12T10:04:06.592Z,4.33
2018-10-12T10:06:35.664Z,4.53
2018-10-12T10:09:05.743Z,4.70
2018-10-12T10:11:35.269Z,4.90
2018-10-12T10:14:04.275Z,5.25
2018-10-12T10:16:33.252Z,4.67
2018-10-12T10:19:02.230Z,5.22
2018-10-12T10:21:31.101Z,5.12
2018-10-12T10:23:59.978Z,5.00
2018-10-12T10:26:28.839Z,4.97
2018-10-12T10:28:57.719Z,4.00
2018-10-12T10:31:26.582Z,5.12
2018-10-12T10:33:55.487Z,4.65
2018-10-12T10:36:24.629Z,4.58
2018-10-12T10:38:53.723Z,4.47
2018-10-12T10:41:22.953Z,4.40
2018-10-12T10:43:51.858Z,3.72
2018-10-12T10:46:20.855Z,4.30
2018-10-12T10:48:49.852Z,4.12
2018-10-12T10:51:19.011Z,3.58
2018-10-12T10:53:47.935Z,4.55
2018-10-12T10:56:16.790Z,4.20
2018-10-12T10:58:45.868Z,3.65
2018-10-12T11:01:14.673Z,3.67
2018-10-12T11:03:43.649Z,3.50
2018-10-12T11:06:12.622Z,3.87
2018-10-12T11:08:41.489Z,3.47
2018-10-12T11:11:10.378Z,3.10
2018-10-12T11:13:39.290Z,3.12
2018-10-12T11:16:08.146Z,3.10
2018-10-12T11:18:37.044Z,3.58
2018-10-12T11:21:06.836Z,3.85
2018-10-12T11:23:35.883Z,3.47
2018-10-12T11:26:04.873Z,3.50
2018-10-12T11:28:33.901Z,3.00
2018-10-12T11:31:02.808Z,3.10
2018-10-12T11:33:31.976Z,3.22
2018-10-12T11:36:00.739Z,3.20
2018-10-12T11:38:29.702Z,2.67
2018-10-12T11:40:58.773Z,3.02
2018-10-12T11:43:31.070Z,2.17
2018-10-12T11:46:00.491Z,2.67
2018-10-12T11:48:29.512Z,2.42
2018-10-12T11:50:58.887Z,2.40
2018-10-12T11:53:27.750Z,2.55
2018-10-12T11:55:56.718Z,2.80
2018-10-12T11:58:26.014Z,2.95
2018-10-12T12:00:54.642Z,2.37
2018-10-12T12:03:23.739Z,2.50
2018-10-12T12:05:52.642Z,2.27
2018-10-12T12:08:21.874Z,2.60
2018-10-12T12:10:50.732Z,2.20
2018-10-12T12:13:19.647Z,2.40
2018-10-12T12:15:48.730Z,2.27
2018-10-12T12:18:17.586Z,2.45
2018-10-12T12:20:46.492Z,2.27
2018-10-12T12:23:15.702Z,2.20
2018-10-12T12:25:44.739Z,2.30
2018-10-12T12:28:13.613Z,2.25
2018-10-12T12:30:42.520Z,2.25
2018-10-12T12:33:11.390Z,2.60
2018-10-12T12:35:40.581Z,2.45
2018-10-12T12:38:09.345Z,2.25
2018-10-12T12:40:38.186Z,2.25
2018-10-12T12:43:07.041Z,2.37
2018-10-12T12:45:35.957Z,2.35
2018-10-12T12:48:05.061Z,2.35
2018-10-12T12:50:34.050Z,2.45
2018-10-12T12:53:03.252Z,2.47
2018-10-12T12:55:32.115Z,2.30
2018-10-12T12:58:01.006Z,2.30
2018-10-12T13:00:30.139Z,2.42
2018-10-12T13:02:58.889Z,2.23
2018-10-12T13:05:27.770Z,2.20
2018-10-12T13:07:56.686Z,2.22
2018-10-12T13:10:25.598Z,1.95
2018-10-12T13:12:54.464Z,2.25
2018-10-12T13:15:23.666Z,1.90
2018-10-12T13:17:52.683Z,1.90
2018-10-12T13:20:21.588Z,1.72
2018-10-12T13:22:50.493Z,1.90
2018-10-12T13:25:19.396Z,2.00
2018-10-12T13:27:48.305Z,1.80
2018-10-12T13:30:17.231Z,1.70
2018-10-12T13:32:46.117Z,1.87
2018-10-12T13:35:15.033Z,1.90
2018-10-12T13:37:44.026Z,1.95
2018-10-12T13:40:12.985Z,1.80
2018-10-12T13:42:42.252Z,1.67
2018-10-12T13:45:11.111Z,1.77
2018-10-12T13:47:39.974Z,1.77
2018-10-12T13:50:09.187Z,1.50
2018-10-12T13:52:38.048Z,1.52
2018-10-12T13:55:08.004Z,1.40
2018-10-12T13:57:36.900Z,1.50
2018-10-12T14:00:06.172Z,1.15
2018-10-12T14:02:34.750Z,1.00
2018-10-12T14:05:03.629Z,1.40
2018-10-12T14:07:32.508Z,1.15
2018-10-12T14:10:01.447Z,1.40
2018-10-12T14:12:30.417Z,1.75
2018-10-12T14:14:59.509Z,1.95
2018-10-12T14:17:28.376Z,1.50
2018-10-12T14:19:57.373Z,1.37
2018-10-12T14:22:26.466Z,1.75
2018-10-12T14:24:55.358Z,1.45
2018-10-12T14:27:24.306Z,1.75
2018-10-12T14:29:53.195Z,2.12
2018-10-12T14:32:22.130Z,1.47
2018-10-12T14:34:51.061Z,1.70
2018-10-12T14:37:19.947Z,1.70
2018-10-12T14:39:48.797Z,1.65
2018-10-12T14:42:17.725Z,1.70
2018-10-12T14:44:46.619Z,1.80
2018-10-12T14:47:17.431Z,1.72
2018-10-12T14:49:46.352Z,1.65
2018-10-12T14:52:15.333Z,1.50
2018-10-12T14:54:44.341Z,1.85
2018-10-12T14:57:18.304Z,1.70
2018-10-12T14:59:48.249Z,1.40
2018-10-12T15:02:17.544Z,1.80
2018-10-12T15:04:46.452Z,2.05
2018-10-12T15:07:15.334Z,1.75
2018-10-12T15:09:44.237Z,1.70
2018-10-12T15:12:13.162Z,2.00
2018-10-12T15:14:53.279Z,2.08
2018-10-12T15:17:22.129Z,2.08
2018-10-12T15:19:52.125Z,1.77
2018-10-12T15:22:21.069Z,2.15
2018-10-12T15:24:50.103Z,2.00
2018-10-12T15:27:19.049Z,2.12
2018-10-12T15:29:47.990Z,1.80
2018-10-12T15:34:51.674Z,1.57
2018-10-12T15:37:20.595Z,1.67
2018-10-12T15:39:49.708Z,1.77
2018-10-12T15:42:18.607Z,1.60
2018-10-12T15:44:47.213Z,1.90
2018-10-12T15:47:16.514Z,1.70
2018-10-12T15:49:45.083Z,1.90
2018-10-12T15:52:13.744Z,1.87
2018-10-12T15:54:42.832Z,2.00
2018-10-12T15:57:15.930Z,1.80
2018-10-12T15:59:45.071Z,1.98
2018-10-12T16:02:13.701Z,2.00
2018-10-12T16:04:42.917Z,2.22
2018-10-12T16:07:12.247Z,2.42
2018-10-12T16:09:41.120Z,2.00
2018-10-12T16:12:10.291Z,2.42
2018-10-12T16:14:39.297Z,2.52
2018-10-12T16:17:08.666Z,2.40
2018-10-12T16:19:37.732Z,2.30
2018-10-12T16:22:07.201Z,2.50
2018-10-12T16:24:36.681Z,2.40
2018-10-12T16:27:05.692Z,2.70
2018-10-12T16:29:34.592Z,2.80
2018-10-12T16:32:03.540Z,2.83
2018-10-12T16:34:32.396Z,2.95
2018-10-12T16:37:01.301Z,3.02
2018-10-12T16:39:30.175Z,3.15
2018-10-12T16:42:00.111Z,3.30
2018-10-12T16:44:29.074Z,3.40
2018-10-12T16:46:58.161Z,3.15
2018-10-12T16:49:27.583Z,3.62
2018-10-12T16:51:56.496Z,3.22
2018-10-12T16:54:25.364Z,3.15
2018-10-12T16:56:54.271Z,3.40
2018-10-12T16:59:23.119Z,3.37
2018-10-12T17:01:51.781Z,3.20
2018-10-12T17:04:21.096Z,3.40
2018-10-12T17:06:50.194Z,3.58
2018-10-12T17:09:19.116Z,3.60
2018-10-12T17:11:48.028Z,3.40
2018-10-12T17:14:17.291Z,3.42
2018-10-12T17:16:46.987Z,3.37
2018-10-12T17:19:16.182Z,3.60
2018-10-12T17:21:45.264Z,4.20
2018-10-12T17:24:18.708Z,3.25
2018-10-12T17:26:47.810Z,3.95
2018-10-12T17:29:16.690Z,3.80
2018-10-12T17:31:45.645Z,4.35
2018-10-12T17:34:14.480Z,4.30
2018-10-12T17:36:43.628Z,4.30
2018-10-12T17:39:13.579Z,4.50
2018-10-12T17:41:42.441Z,4.50
2018-10-12T17:44:11.325Z,4.22
2018-10-12T17:46:40.489Z,4.55
2018-10-12T17:49:09.390Z,4.58
2018-10-12T17:51:38.459Z,4.47
2018-10-12T17:54:07.727Z,4.45
2018-10-12T17:56:36.924Z,4.95
2018-10-12T17:59:05.984Z,4.62
2018-10-12T18:01:34.564Z,5.20
2018-10-12T18:04:03.459Z,5.00
2018-10-12T18:06:32.456Z,5.25
2018-10-12T18:09:01.758Z,4.83
2018-10-12T18:11:30.814Z,4.87
2018-10-12T18:14:03.117Z,5.10
2018-10-12T18:16:31.997Z,5.50
2018-10-12T18:19:00.899Z,5.45
2018-10-12T18:21:29.823Z,5.50
2018-10-12T18:23:58.705Z,5.30
2018-10-12T18:26:27.677Z,5.60
2018-10-12T18:28:56.659Z,5.53
2018-10-12T18:31:25.608Z,5.55
2018-10-12T18:33:54.555Z,5.12
2018-10-12T18:36:23.531Z,5.40
2018-10-12T18:38:52.583Z,5.75
2018-10-12T18:41:22.061Z,5.37
2018-10-12T18:43:51.025Z,5.70
2018-10-12T18:46:20.008Z,6.33
2018-10-12T18:48:48.918Z,5.67
2018-10-12T18:51:18.115Z,5.58
2018-10-12T18:53:47.038Z,5.83
2018-10-12T18:56:16.086Z,7.22
2018-10-12T18:58:45.098Z,9.28
2018-10-12T19:01:13.989Z,6.23
2018-10-12T19:03:42.875Z,5.90
2018-10-12T19:06:12.025Z,5.72
2018-10-12T19:08:41.111Z,5.92
2018-10-12T19:11:10.243Z,5.92
2018-10-12T19:13:39.354Z,6.15
2018-10-12T19:16:08.949Z,6.30
2018-10-12T19:18:37.961Z,5.90
2018-10-12T19:21:07.468Z,6.05
2018-10-12T19:23:37.808Z,6.30
2018-10-12T19:26:09.811Z,6.03
2018-10-12T19:28:38.899Z,6.03
2018-10-12T19:31:08.622Z,5.70
2018-10-12T19:33:38.130Z,6.47
2018-10-12T19:36:07.131Z,6.17
2018-10-12T19:38:36.389Z,5.58
2018-10-12T19:41:06.091Z,6.08
2018-10-12T19:43:35.194Z,6.17
2018-10-12T19:46:05.035Z,6.47
2018-10-12T19:48:34.217Z,6.28
2018-10-12T19:51:03.344Z,6.15
2018-10-12T19:53:32.524Z,6.10
2018-10-12T19:56:02.239Z,5.97
2018-10-12T19:58:31.302Z,6.15
2018-10-12T20:00:59.678Z,5.97
2018-10-12T20:03:28.708Z,5.72
2018-10-12T20:05:57.905Z,5.67
2018-10-12T20:08:27.074Z,5.87
2018-10-12T20:10:56.182Z,6.00
2018-10-12T20:13:25.145Z,5.28
2018-10-12T20:15:54.368Z,5.42
2018-10-12T20:18:23.378Z,5.60
2018-10-12T20:20:52.442Z,6.12
2018-10-12T20:23:21.517Z,5.25
2018-10-12T20:25:50.440Z,6.58
2018-10-12T20:28:19.818Z,6.22
2018-10-12T20:30:49.151Z,5.72
2018-10-12T20:33:19.051Z,5.83
2018-10-12T20:35:48.425Z,5.72
2018-10-12T20:38:17.927Z,5.78
2018-10-12T20:40:47.089Z,5.55
2018-10-12T20:43:16.415Z,5.87
2018-10-12T20:45:45.443Z,5.80
2018-10-12T20:48:14.497Z,5.33
2018-10-12T20:50:43.675Z,6.08
2018-10-12T20:53:13.064Z,5.10
2018-10-12T20:55:42.127Z,5.87
2018-10-12T20:58:16.261Z,5.45
2018-10-12T21:00:45.698Z,5.97
2018-10-12T21:03:14.622Z,5.80
2018-10-12T21:05:43.871Z,5.53
2018-10-12T21:08:13.086Z,5.97
2018-10-12T21:10:42.388Z,5.78
2018-10-12T21:13:11.432Z,6.35
2018-10-12T21:15:40.328Z,6.10
2018-10-12T21:18:09.358Z,6.28
2018-10-12T21:20:38.436Z,5.55
2018-10-12T21:23:07.500Z,5.85
2018-10-12T21:25:36.561Z,6.78
2018-10-12T21:28:06.027Z,6.03
2018-10-12T21:30:35.333Z,6.40
2018-10-12T21:33:04.351Z,6.20
2018-10-12T21:35:33.604Z,6.45
2018-10-12T21:38:02.715Z,6.60
2018-10-12T21:40:31.635Z,6.05
2018-10-12T21:43:00.590Z,6.75
2018-10-12T21:45:29.480Z,6.53
2018-10-12T21:47:58.403Z,6.60
2018-10-12T21:50:27.358Z,7.10
2018-10-12T21:52:56.391Z,6.55
2018-10-12T21:55:25.296Z,6.22
2018-10-12T21:57:54.307Z,7.00
2018-10-12T22:00:23.578Z,7.10
2018-10-12T22:02:52.492Z,6.53
2018-10-12T22:05:21.430Z,7.30
2018-10-12T22:07:50.386Z,6.80
2018-10-12T22:10:19.298Z,6.72
2018-10-12T22:12:51.491Z,6.42
2018-10-12T22:15:20.753Z,6.97
2018-10-12T22:17:49.899Z,7.37
2018-10-12T22:20:18.884Z,7.37
2018-10-12T22:22:47.844Z,7.15
2018-10-12T22:25:17.171Z,8.13
2018-10-12T22:27:46.714Z,7.17
2018-10-12T22:30:15.868Z,6.55
2018-10-12T22:32:44.772Z,6.30
2018-10-12T22:35:13.695Z,6.67
2018-10-12T22:37:42.601Z,7.10
2018-10-12T22:40:11.509Z,7.58
2018-10-12T22:42:40.441Z,7.58
2018-10-12T22:45:09.868Z,7.15
2018-10-12T22:47:38.787Z,7.47
2018-10-12T22:50:07.671Z,7.30
2018-10-12T22:52:36.555Z,7.28
2018-10-12T22:55:05.569Z,7.50
2018-10-12T22:57:34.445Z,7.47
2018-10-12T23:00:03.341Z,6.55
2018-10-12T23:02:32.569Z,6.58
2018-10-12T23:05:01.431Z,7.10
2018-10-12T23:07:30.517Z,7.25
2018-10-12T23:09:59.373Z,7.22
2018-10-12T23:12:28.296Z,7.58
2018-10-12T23:14:57.335Z,7.50
2018-10-12T23:17:26.175Z,7.55
2018-10-12T23:19:55.115Z,8.03
2018-10-12T23:22:24.336Z,7.03
2018-10-12T23:24:53.189Z,7.42
2018-10-12T23:27:22.045Z,7.80
2018-10-12T23:29:50.908Z,7.53
2018-10-12T23:32:19.849Z,8.10
2018-10-12T23:34:48.666Z,7.70
2018-10-12T23:37:17.552Z,7.42
2018-10-12T23:39:46.411Z,8.10
2018-10-12T23:42:15.399Z,8.05
2018-10-12T23:44:44.275Z,8.50
2018-10-12T23:47:13.211Z,7.65
2018-10-12T23:49:42.306Z,7.78
2018-10-12T23:52:11.517Z,8.13
2018-10-12T23:54:40.397Z,8.65
2018-10-12T23:57:09.252Z,8.03
2018-10-12T23:59:38.109Z,7.90
